GLO1577 SBSV-SBSP
Flight info
| Callsign | GLO1577 |
|---|---|
| Flight time | N/A |
| Altitude | 36000 |
| Route | GEKEV UZ30 ENTIT |
| Aircraft | B738/M-SDFGIKLORWX/LB1 |
Departure
| Time | 2026-04-29 16:24 |
|---|---|
| Airport | Deputado Luiz Eduardo Magalhães International Airport (SBSV) |
Arrival
| Time | N/A |
|---|---|
| Airport | Congonhas–Deputado Freitas Nobre Airport (SBSP) |
| Time | Latitude | Longitude | Altitude | Speed | Heading |
|---|---|---|---|---|---|
| 2026-04-29 16:03 | -12.91352 | -38.33230 | 43 ft | 0 kts | 209° |
| 2026-04-29 16:18 | -12.91344 | -38.33225 | 43 ft | 4 kts | 210° |
| 2026-04-29 16:19 | -12.91321 | -38.33211 | 43 ft | 4 kts | 215° |
| 2026-04-29 16:19 | -12.91299 | -38.33194 | 41 ft | 4 kts | 226° |
| 2026-04-29 16:19 | -12.91285 | -38.33173 | 43 ft | 4 kts | 267° |
| 2026-04-29 16:19 | -12.91287 | -38.33161 | 43 ft | 1 kts | 308° |
| 2026-04-29 16:21 | -12.91279 | -38.33168 | 43 ft | 6 kts | 324° |
| 2026-04-29 16:21 | -12.91219 | -38.33190 | 43 ft | 11 kts | 315° |
| 2026-04-29 16:22 | -12.91218 | -38.33265 | 43 ft | 11 kts | 262° |
| 2026-04-29 16:22 | -12.91212 | -38.33338 | 41 ft | 10 kts | 289° |
| 2026-04-29 16:22 | -12.91187 | -38.33405 | 41 ft | 10 kts | 297° |
| 2026-04-29 16:22 | -12.91118 | -38.33435 | 42 ft | 14 kts | 17° |
| 2026-04-29 16:23 | -12.91073 | -38.33334 | 41 ft | 30 kts | 78° |
| 2026-04-29 16:23 | -12.90982 | -38.32879 | 46 ft | 101 kts | 78° |
| 2026-04-29 16:23 | -12.90804 | -38.31962 | 52 ft | 159 kts | 79° |
| 2026-04-29 16:23 | -12.90581 | -38.30787 | 641 ft | 170 kts | 80° |
| 2026-04-29 16:24 | -12.90365 | -38.29571 | 1419 ft | 177 kts | 80° |
| 2026-04-29 16:24 | -12.90100 | -38.28237 | 1750 ft | 204 kts | 78° |
| 2026-04-29 16:24 | -12.89861 | -38.26723 | 1964 ft | 227 kts | 94° |
| 2026-04-29 16:24 | -12.90506 | -38.25188 | 2203 ft | 249 kts | 133° |
| 2026-04-29 16:25 | -12.91989 | -38.24258 | 2865 ft | 260 kts | 162° |
| 2026-04-29 16:25 | -12.93792 | -38.24145 | 3771 ft | 264 kts | 189° |
| 2026-04-29 16:25 | -12.95455 | -38.24949 | 4575 ft | 273 kts | 219° |
| 2026-04-29 16:25 | -12.96571 | -38.26545 | 5358 ft | 280 kts | 242° |
| 2026-04-29 16:26 | -12.97382 | -38.28370 | 6150 ft | 284 kts | 244° |
| 2026-04-29 16:26 | -12.98184 | -38.30232 | 6927 ft | 287 kts | 244° |
| 2026-04-29 16:26 | -12.99014 | -38.32109 | 7665 ft | 291 kts | 243° |
| 2026-04-29 16:26 | -12.99879 | -38.34001 | 8375 ft | 295 kts | 243° |
| 2026-04-29 16:27 | -13.00770 | -38.35910 | 9085 ft | 298 kts | 242° |
| 2026-04-29 16:27 | -13.01677 | -38.37838 | 9802 ft | 301 kts | 242° |
| 2026-04-29 16:27 | -13.02589 | -38.39799 | 10370 ft | 311 kts | 245° |
| 2026-04-29 16:27 | -13.03203 | -38.42019 | 10526 ft | 335 kts | 257° |
| 2026-04-29 16:28 | -13.03490 | -38.43594 | 10760 ft | 344 kts | 258° |
| 2026-04-29 16:28 | -13.03901 | -38.46044 | 11315 ft | 350 kts | 259° |
| 2026-04-29 16:28 | -13.04452 | -38.49319 | 12192 ft | 355 kts | 258° |
| 2026-04-29 16:28 | -13.04890 | -38.51827 | 12831 ft | 359 kts | 258° |
| 2026-04-29 16:29 | -13.05343 | -38.54355 | 13454 ft | 363 kts | 258° |
| 2026-04-29 16:29 | -13.05657 | -38.56083 | 13884 ft | 366 kts | 258° |
| 2026-04-29 16:29 | -13.06125 | -38.58633 | 14489 ft | 370 kts | 258° |
| 2026-04-29 16:29 | -13.06608 | -38.61251 | 15106 ft | 375 kts | 258° |
| 2026-04-29 16:30 | -13.07096 | -38.63892 | 15724 ft | 379 kts | 258° |
| 2026-04-29 16:30 | -13.07589 | -38.66565 | 16319 ft | 383 kts | 258° |
| 2026-04-29 16:30 | -13.08088 | -38.69270 | 16894 ft | 388 kts | 258° |
| 2026-04-29 16:30 | -13.08593 | -38.72000 | 17475 ft | 391 kts | 257° |
| 2026-04-29 16:31 | -13.09466 | -38.74642 | 17979 ft | 394 kts | 239° |
| 2026-04-29 16:31 | -13.10895 | -38.77048 | 18540 ft | 396 kts | 236° |
| 2026-04-29 16:31 | -13.12396 | -38.79428 | 19072 ft | 399 kts | 235° |
| 2026-04-29 16:31 | -13.13924 | -38.81829 | 19584 ft | 403 kts | 235° |
| 2026-04-29 16:32 | -13.15458 | -38.84256 | 20108 ft | 407 kts | 235° |
| 2026-04-29 16:32 | -13.16993 | -38.86706 | 20632 ft | 410 kts | 236° |
| 2026-04-29 16:32 | -13.18532 | -38.89181 | 21121 ft | 413 kts | 236° |
| 2026-04-29 16:32 | -13.20077 | -38.91683 | 21621 ft | 416 kts | 236° |
| 2026-04-29 16:33 | -13.23196 | -38.96751 | 22533 ft | 423 kts | 236° |
| 2026-04-29 16:33 | -13.24748 | -38.99279 | 22990 ft | 425 kts | 236° |
| 2026-04-29 16:33 | -13.26331 | -39.01855 | 23425 ft | 429 kts | 236° |
| 2026-04-29 16:34 | -13.27931 | -39.04462 | 23832 ft | 432 kts | 236° |
| 2026-04-29 16:34 | -13.29543 | -39.07088 | 24252 ft | 435 kts | 236° |
| 2026-04-29 16:34 | -13.31162 | -39.09725 | 24686 ft | 437 kts | 236° |
| 2026-04-29 16:34 | -13.32784 | -39.12370 | 25151 ft | 438 kts | 236° |
| 2026-04-29 16:35 | -13.34409 | -39.15019 | 25595 ft | 440 kts | 236° |
| 2026-04-29 16:35 | -13.36044 | -39.17684 | 26027 ft | 441 kts | 236° |
| 2026-04-29 16:35 | -13.37682 | -39.20357 | 26448 ft | 443 kts | 236° |
| 2026-04-29 16:35 | -13.39328 | -39.23043 | 26846 ft | 445 kts | 236° |
| 2026-04-29 16:36 | -13.40977 | -39.25734 | 27230 ft | 446 kts | 236° |
| 2026-04-29 16:36 | -13.42633 | -39.28438 | 27632 ft | 447 kts | 236° |
| 2026-04-29 16:36 | -13.44267 | -39.31108 | 28024 ft | 448 kts | 236° |
| 2026-04-29 16:36 | -13.45931 | -39.33826 | 28387 ft | 450 kts | 236° |
| 2026-04-29 16:37 | -13.47600 | -39.36557 | 28727 ft | 451 kts | 237° |
| 2026-04-29 16:37 | -13.49270 | -39.39293 | 29065 ft | 453 kts | 237° |
| 2026-04-29 16:37 | -13.50951 | -39.42051 | 29400 ft | 454 kts | 237° |
| 2026-04-29 16:37 | -13.52062 | -39.43873 | 29622 ft | 455 kts | 237° |
| 2026-04-29 16:38 | -13.54315 | -39.47571 | 30043 ft | 457 kts | 237° |
| 2026-04-29 16:38 | -13.56002 | -39.50341 | 30371 ft | 458 kts | 237° |
| 2026-04-29 16:38 | -13.57697 | -39.53124 | 30681 ft | 459 kts | 237° |
| 2026-04-29 16:38 | -13.59371 | -39.55874 | 30970 ft | 461 kts | 237° |
| 2026-04-29 16:39 | -13.61074 | -39.58671 | 31255 ft | 462 kts | 237° |
| 2026-04-29 16:39 | -13.62780 | -39.61476 | 31520 ft | 463 kts | 237° |
| 2026-04-29 16:39 | -13.64491 | -39.64289 | 31799 ft | 464 kts | 237° |
| 2026-04-29 16:39 | -13.66204 | -39.67107 | 32073 ft | 465 kts | 237° |
| 2026-04-29 16:40 | -13.67920 | -39.69929 | 32333 ft | 466 kts | 237° |
| 2026-04-29 16:40 | -13.69640 | -39.72761 | 32588 ft | 467 kts | 237° |
| 2026-04-29 16:40 | -13.71365 | -39.75600 | 32907 ft | 466 kts | 237° |
| 2026-04-29 16:40 | -13.73079 | -39.78423 | 33316 ft | 463 kts | 237° |
| 2026-04-29 16:41 | -13.74779 | -39.81224 | 33738 ft | 460 kts | 237° |
| 2026-04-29 16:41 | -13.76469 | -39.84010 | 34122 ft | 458 kts | 237° |
| 2026-04-29 16:41 | -13.78152 | -39.86785 | 34472 ft | 456 kts | 237° |
| 2026-04-29 16:41 | -13.79807 | -39.89514 | 34753 ft | 456 kts | 237° |
| 2026-04-29 16:42 | -13.81482 | -39.92276 | 35034 ft | 455 kts | 237° |
| 2026-04-29 16:42 | -13.83155 | -39.95038 | 35345 ft | 454 kts | 237° |
| 2026-04-29 16:42 | -13.84824 | -39.97791 | 35647 ft | 453 kts | 237° |
| 2026-04-29 16:42 | -13.86489 | -40.00541 | 35912 ft | 452 kts | 237° |
| 2026-04-29 16:43 | -13.88153 | -40.03289 | 36051 ft | 453 kts | 237° |
| 2026-04-29 16:43 | -13.89821 | -40.06045 | 36038 ft | 452 kts | 237° |
| 2026-04-29 16:43 | -13.93111 | -40.11486 | 36036 ft | 444 kts | 237° |
| 2026-04-29 16:44 | -13.96367 | -40.16872 | 36055 ft | 442 kts | 237° |
| 2026-04-29 16:44 | -13.99592 | -40.22210 | 36050 ft | 442 kts | 237° |
| 2026-04-29 16:45 | -14.02836 | -40.27583 | 36044 ft | 442 kts | 237° |
| 2026-04-29 16:45 | -14.06078 | -40.32958 | 36045 ft | 442 kts | 237° |
| 2026-04-29 16:46 | -14.09341 | -40.38335 | 36049 ft | 442 kts | 233° |
| 2026-04-29 16:46 | -14.11393 | -40.40673 | 36056 ft | 439 kts | 218° |
| 2026-04-29 16:46 | -14.13790 | -40.42622 | 36047 ft | 439 kts | 216° |
| 2026-04-29 16:47 | -14.18681 | -40.46423 | 36047 ft | 440 kts | 216° |
| 2026-04-29 16:47 | -14.23574 | -40.50238 | 36049 ft | 442 kts | 216° |
| 2026-04-29 16:48 | -14.28423 | -40.54080 | 36049 ft | 443 kts | 217° |
| 2026-04-29 16:48 | -14.33301 | -40.57975 | 36043 ft | 444 kts | 217° |
| 2026-04-29 16:49 | -14.38189 | -40.61886 | 36052 ft | 445 kts | 217° |
| 2026-04-29 16:49 | -14.43085 | -40.65806 | 36047 ft | 446 kts | 217° |
| 2026-04-29 16:50 | -14.47983 | -40.69729 | 36046 ft | 446 kts | 217° |
| 2026-04-29 16:50 | -14.52883 | -40.73655 | 36044 ft | 446 kts | 217° |
| 2026-04-29 16:51 | -14.57776 | -40.77577 | 36049 ft | 445 kts | 217° |
| 2026-04-29 16:51 | -14.62632 | -40.81473 | 36048 ft | 444 kts | 217° |
| 2026-04-29 16:52 | -14.67512 | -40.85389 | 36053 ft | 444 kts | 217° |
| 2026-04-29 16:52 | -14.72385 | -40.89303 | 36054 ft | 444 kts | 217° |
| 2026-04-29 16:53 | -14.77265 | -40.93223 | 36053 ft | 444 kts | 217° |